OJAI/AMM METAR and TAF weather

Enter ICAO airport designator
Station Type Date Time Source
OJAI METAR 2022/08/13 12:00 UTC NOAA

OJAI 131200Z 29017KT 6000 NSC 31/14 Q1009 NOSIG


Station Type Date Time Source
OJAI Decoded METAR 2022/08/13 12:00 UTC NOAA

Queen Alia Airport, Jordan (OJAI) 31-40N 035-58E
Aug 13, 2022 - 08:00 AM EDT / 2022.08.13 1200 UTC
Wind: from the WNW (290 degrees) at 20 MPH (17 KT):0
Visibility: 3 mile(s):0
Temperature: 87 F (31 C)
Dew Point: 57 F (14 C)
Relative Humidity: 35%
Pressure (altimeter): 29.80 in. Hg (1009 hPa)
ob: OJAI 131200Z 29017KT 6000 NSC 31/14 Q1009 NOSIG
cycle: 12

Station Type Date Time Source
OJAI TAF 2022/08/13 12:15 UTC NOAA

TAF OJAI 131009Z 1312/1418 30012KT 5000 HZ NSC
TEMPO 1312/1318 28016KT 4000 BLDU PROB30 1402/1405 3000 BR SCT030

Example: see airport list